createdAt,value
2023-02-02T07:37:54.454Z,97505.00
2023-02-02T07:40:58.006Z,97512.66
2023-02-02T07:44:01.754Z,97519.00
2023-02-02T07:47:05.753Z,97508.84
2023-02-02T07:50:11.163Z,97502.72
2023-02-02T07:53:16.499Z,97516.38
2023-02-02T07:56:23.019Z,97515.94
2023-02-02T07:59:26.418Z,97521.31
2023-02-02T08:02:29.577Z,97522.66
2023-02-02T08:05:34.700Z,97531.72
2023-02-02T08:08:39.635Z,97538.06
2023-02-02T08:11:43.190Z,97537.41
2023-02-02T08:14:46.399Z,97546.06
2023-02-02T08:17:49.922Z,97542.66
2023-02-02T08:20:53.266Z,97540.41
2023-02-02T08:23:58.444Z,97543.53
2023-02-02T08:27:01.752Z,97544.63
2023-02-02T08:30:06.073Z,97556.88
2023-02-02T08:33:09.403Z,97549.81
2023-02-02T08:36:14.661Z,97559.66
2023-02-02T08:39:19.208Z,97549.66
2023-02-02T08:42:22.884Z,97559.69
2023-02-02T08:46:02.074Z,97569.78
2023-02-02T08:48:50.455Z,97570.69
2023-02-02T08:51:53.759Z,97546.75
2023-02-02T08:54:58.663Z,97545.72
2023-02-02T08:58:01.855Z,97566.53
2023-02-02T09:01:08.081Z,97580.47
2023-02-02T09:04:17.032Z,97566.72
2023-02-02T09:07:21.299Z,97583.31
2023-02-02T09:10:26.140Z,97581.41
2023-02-02T09:13:29.806Z,97578.53
2023-02-02T09:16:36.067Z,97605.22
2023-02-02T09:19:39.599Z,97544.81
2023-02-02T09:22:43.043Z,97609.03
2023-02-02T09:25:48.269Z,97619.13
2023-02-02T09:28:56.114Z,97603.59
2023-02-02T09:31:59.691Z,97604.53
2023-02-02T09:35:03.253Z,97612.41
2023-02-02T09:38:06.880Z,97623.47
2023-02-02T09:42:10.751Z,97632.63
2023-02-02T09:45:32.601Z,97628.78
2023-02-02T09:48:52.966Z,97649.19
2023-02-02T09:52:06.182Z,97642.91
2023-02-02T09:55:19.393Z,97650.94
2023-02-02T09:58:28.800Z,97612.88
2023-02-02T10:01:39.854Z,97659.16
2023-02-02T10:04:50.163Z,97673.19
2023-02-02T10:08:03.179Z,97667.84
2023-02-02T10:11:28.871Z,97683.41
2023-02-02T10:14:42.439Z,97687.88
2023-02-02T10:17:56.567Z,97692.31
2023-02-02T10:21:04.458Z,97684.34
2023-02-02T10:24:18.984Z,97694.16
2023-02-02T10:27:37.917Z,97709.66
2023-02-02T10:30:47.761Z,97724.09
2023-02-02T10:34:07.755Z,97694.66
2023-02-02T10:37:28.952Z,97740.94
2023-02-02T10:40:55.528Z,97731.63
2023-02-02T10:44:17.421Z,97743.25
2023-02-02T10:47:28.685Z,97747.00
2023-02-02T10:50:33.703Z,97729.78
2023-02-02T10:53:37.487Z,97746.13
2023-02-02T10:56:52.639Z,97748.03
2023-02-02T11:00:06.495Z,97749.22
2023-02-02T11:03:12.924Z,97765.75
2023-02-02T11:06:35.635Z,97757.41
2023-02-02T11:09:43.615Z,97778.75
2023-02-02T11:12:53.113Z,97788.00
2023-02-02T11:16:43.272Z,97758.81
2023-02-02T11:19:47.985Z,97781.19
2023-02-02T11:23:03.054Z,97788.31
2023-02-02T11:26:07.471Z,97771.13
2023-02-02T11:29:20.572Z,97791.06
2023-02-02T11:32:32.491Z,97792.16
2023-02-02T11:35:53.109Z,97791.34
2023-02-02T11:39:17.256Z,97813.28
2023-02-02T11:42:24.837Z,97807.16
2023-02-02T11:45:37.281Z,97813.19
2023-02-02T11:48:50.931Z,97831.31
2023-02-02T11:52:01.007Z,97814.59
2023-02-02T11:55:26.136Z,97820.13
2023-02-02T11:58:43.376Z,97841.97
2023-02-02T12:01:46.687Z,97839.81
2023-02-02T12:04:53.699Z,97839.91
2023-02-02T12:07:56.947Z,97846.97
2023-02-02T12:11:07.221Z,97861.44
2023-02-02T12:14:32.436Z,97861.97
2023-02-02T12:17:43.054Z,97874.28
2023-02-02T12:20:59.820Z,97866.63
2023-02-02T12:24:31.317Z,97889.38
2023-02-02T12:27:50.390Z,97867.59
2023-02-02T12:31:07.905Z,97890.47
2023-02-02T12:34:31.073Z,97911.59
2023-02-02T12:37:54.531Z,97917.16
2023-02-02T12:41:23.143Z,97914.72
2023-02-02T12:44:39.775Z,97928.22
2023-02-02T12:48:02.066Z,97937.13
2023-02-02T12:51:29.381Z,97940.31
2023-02-02T12:55:03.007Z,97930.63
2023-02-02T12:58:20.062Z,97951.41
2023-02-02T13:01:44.357Z,97945.94
2023-02-02T13:05:10.400Z,97956.56
2023-02-02T13:08:22.543Z,97962.28
2023-02-02T13:11:42.034Z,97967.13
2023-02-02T13:14:51.644Z,97975.00
2023-02-02T13:18:00.187Z,97973.13
2023-02-02T13:21:08.553Z,97977.66
2023-02-02T13:24:26.333Z,97974.34
2023-02-02T13:27:32.542Z,97992.06
2023-02-02T13:30:40.456Z,97980.59
2023-02-02T13:33:51.225Z,97990.63
2023-02-02T13:37:03.019Z,97993.88
2023-02-02T13:40:25.811Z,97990.34
2023-02-02T13:43:44.081Z,97990.56
2023-02-02T13:46:59.698Z,97987.41
2023-02-02T13:50:14.688Z,98003.19
2023-02-02T13:53:48.263Z,98014.09
2023-02-02T13:57:06.171Z,98014.91
2023-02-02T14:00:19.388Z,98017.44
2023-02-02T14:03:38.714Z,98026.22
2023-02-02T14:06:59.101Z,98050.78
2023-02-02T14:10:04.393Z,98041.50
2023-02-02T14:13:39.541Z,98052.34
2023-02-02T14:16:53.373Z,98055.69
2023-02-02T14:19:58.205Z,98055.56
2023-02-02T14:23:03.120Z,98061.56
2023-02-02T14:26:09.652Z,98079.50
2023-02-02T14:29:58.432Z,98085.09
2023-02-02T14:33:39.171Z,98097.13
2023-02-02T14:37:00.607Z,98088.47
2023-02-02T14:40:29.105Z,98107.59
2023-02-02T14:43:49.560Z,98113.06
2023-02-02T14:46:54.373Z,98126.47
2023-02-02T14:49:59.516Z,98142.03
2023-02-02T14:53:18.715Z,98138.75
2023-02-02T14:56:46.896Z,98157.03
2023-02-02T14:59:55.145Z,98163.31
2023-02-02T15:03:38.893Z,98173.66
2023-02-02T15:06:43.609Z,98156.44
2023-02-02T15:09:46.832Z,98182.22
2023-02-02T15:13:08.576Z,98189.91
2023-02-02T15:16:28.625Z,98200.81
2023-02-02T15:19:40.970Z,98206.16
2023-02-02T15:22:52.303Z,98202.59
2023-02-02T15:26:04.639Z,98209.94
2023-02-02T15:29:22.203Z,98217.50
2023-02-02T15:32:28.447Z,98224.03
2023-02-02T15:35:36.618Z,98237.38
2023-02-02T15:38:44.335Z,98246.97
2023-02-02T15:42:10.841Z,98251.88
2023-02-02T15:45:39.823Z,98248.59
2023-02-02T15:48:43.953Z,98268.75
2023-02-02T15:51:50.870Z,98273.69
2023-02-02T15:54:57.317Z,98276.69
2023-02-02T15:58:01.402Z,98287.97
2023-02-02T16:01:16.709Z,98294.00
2023-02-02T16:04:31.231Z,98301.25
2023-02-02T16:07:35.044Z,98299.66
2023-02-02T16:10:38.840Z,98317.06
2023-02-02T16:13:54.913Z,98321.84
2023-02-02T16:17:13.617Z,98321.84
2023-02-02T16:20:19.283Z,98338.56
2023-02-02T16:23:31.525Z,98338.00
2023-02-02T16:26:37.103Z,98350.03
2023-02-02T16:29:41.814Z,98353.31
2023-02-02T16:32:46.593Z,98352.78
2023-02-02T16:35:50.073Z,98359.06
2023-02-02T16:38:55.976Z,98369.13
2023-02-02T16:42:11.375Z,98365.63
2023-02-02T16:45:35.999Z,98372.44
2023-02-02T16:48:45.135Z,98392.88
2023-02-02T16:52:07.850Z,98393.44
2023-02-02T16:55:11.747Z,98404.59
2023-02-02T16:58:19.685Z,98406.47
2023-02-02T17:01:23.265Z,98418.22
2023-02-02T17:04:32.626Z,98435.38
2023-02-02T17:07:39.798Z,98431.81
2023-02-02T17:10:44.973Z,98452.53
2023-02-02T17:13:48.461Z,98469.97
2023-02-02T17:16:52.151Z,98459.88
2023-02-02T17:19:57.482Z,98473.22
2023-02-02T17:23:05.021Z,98470.50
2023-02-02T17:26:10.219Z,98477.03
2023-02-02T17:29:17.105Z,98488.47
2023-02-02T17:32:20.876Z,98498.00
2023-02-02T17:35:37.111Z,98501.31
2023-02-02T17:38:47.434Z,98507.56
2023-02-02T17:41:51.482Z,98515.19
2023-02-02T17:44:55.352Z,98522.28
2023-02-02T17:47:59.850Z,98510.03
2023-02-02T17:51:07.105Z,98514.91
2023-02-02T17:54:13.414Z,98527.16
2023-02-02T17:57:17.041Z,98531.03
2023-02-02T18:00:24.153Z,98533.72
2023-02-02T18:03:34.300Z,98537.56
2023-02-02T18:06:40.069Z,98548.72
2023-02-02T18:09:43.730Z,98556.91
2023-02-02T18:12:47.286Z,98563.44
2023-02-02T18:15:53.062Z,98561.50
2023-02-02T18:18:57.562Z,98568.59
2023-02-02T18:22:02.464Z,98565.31
2023-02-02T18:25:06.690Z,98575.66
2023-02-02T18:28:11.471Z,98571.03
2023-02-02T18:31:19.396Z,98576.72
2023-02-02T18:34:22.953Z,98576.16
2023-02-02T18:37:27.851Z,98592.00
2023-02-02T18:40:31.361Z,98610.50
2023-02-02T18:43:35.077Z,98623.09
2023-02-02T18:46:38.793Z,98628.50
2023-02-02T18:49:42.249Z,98655.47
2023-02-02T18:52:47.091Z,98656.84
2023-02-02T18:55:50.774Z,98653.88
2023-02-02T18:58:54.767Z,98658.50
2023-02-02T19:01:58.382Z,98669.44
2023-02-02T19:05:19.428Z,98670.56
2023-02-02T19:08:25.333Z,98681.47
2023-02-02T19:11:40.249Z,98678.47
2023-02-02T19:14:43.797Z,98690.25
2023-02-02T19:17:50.480Z,98696.78
2023-02-02T19:20:54.636Z,98710.97
2023-02-02T19:24:00.847Z,98715.38
2023-02-02T19:27:12.594Z,98715.59
2023-02-02T19:30:23.807Z,98720.22
2023-02-02T19:33:39.267Z,98740.97
2023-02-02T19:36:46.787Z,98736.59
2023-02-02T19:39:52.190Z,98736.06
2023-02-02T19:43:18.896Z,98757.88
2023-02-02T19:46:27.037Z,98752.69
2023-02-02T19:49:35.173Z,98755.72
2023-02-02T19:52:39.708Z,98770.72
2023-02-02T19:55:48.904Z,98772.63
2023-02-02T19:58:53.724Z,98788.25
2023-02-02T20:01:57.401Z,98785.00
2023-02-02T20:05:07.524Z,98787.09
2023-02-02T20:08:24.436Z,98794.09
2023-02-02T20:11:36.084Z,98787.84
2023-02-02T20:14:39.886Z,98790.88
2023-02-02T20:17:43.145Z,98806.47
2023-02-02T20:20:53.810Z,98811.91
2023-02-02T20:23:58.187Z,98813.31
2023-02-02T20:27:26.456Z,98811.63
2023-02-02T20:30:31.916Z,98831.56
2023-02-02T20:33:49.501Z,98831.56
2023-02-02T20:36:54.936Z,98839.72
2023-02-02T20:40:01.209Z,98838.88
2023-02-02T20:43:06.171Z,98839.72
2023-02-02T20:46:09.870Z,98851.16
2023-02-02T20:49:13.349Z,98848.91
2023-02-02T20:52:23.755Z,98855.69
2023-02-02T20:55:28.319Z,98861.69
2023-02-02T20:58:33.292Z,98873.94
2023-02-02T21:01:36.798Z,98870.97
2023-02-02T21:04:46.515Z,98882.38
2023-02-02T21:07:54.780Z,98882.88
2023-02-02T21:10:58.535Z,98889.94
2023-02-02T21:14:03.326Z,98904.63
2023-02-02T21:17:14.734Z,98903.28
2023-02-02T21:20:19.941Z,98910.88
2023-02-02T21:23:23.412Z,98921.28
2023-02-02T21:26:30.375Z,98921.78
2023-02-02T21:29:36.102Z,98926.34
2023-02-02T21:32:39.711Z,98931.22
2023-02-02T21:35:43.188Z,98942.94
2023-02-02T21:38:47.022Z,98946.72
2023-02-02T21:41:55.102Z,98938.50
2023-02-02T21:45:26.598Z,98939.88
2023-02-02T21:48:38.715Z,98946.63
2023-02-02T21:51:43.243Z,98954.81
2023-02-02T21:54:47.520Z,98963.53
2023-02-02T21:57:50.703Z,98957.81
2023-02-02T22:01:03.785Z,98965.69
2023-02-02T22:04:17.334Z,98982.03
2023-02-02T22:07:20.946Z,98982.34
2023-02-02T22:10:36.432Z,98989.06
2023-02-02T22:13:39.887Z,98991.47
2023-02-02T22:16:48.885Z,98995.03
2023-02-02T22:19:59.895Z,98994.63
2023-02-02T22:23:04.522Z,98994.69
2023-02-02T22:26:32.313Z,98993.56
2023-02-02T22:29:36.468Z,98994.84
2023-02-02T22:32:41.292Z,98993.94
2023-02-02T22:35:46.426Z,99002.69
2023-02-02T22:38:49.872Z,98998.78
2023-02-02T22:41:53.379Z,99004.69
2023-02-02T22:44:56.828Z,99010.63
2023-02-02T22:48:01.568Z,99010.38
2023-02-02T22:51:05.250Z,99015.75
2023-02-02T22:54:08.759Z,99015.25
2023-02-02T22:57:12.353Z,99013.22
2023-02-02T23:00:19.150Z,99013.53
2023-02-02T23:03:24.189Z,99025.19
2023-02-02T23:06:27.636Z,99035.31
2023-02-02T23:09:31.214Z,99041.91
2023-02-02T23:12:35.265Z,99039.94
2023-02-02T23:15:38.862Z,99046.19
2023-02-02T23:18:44.147Z,99039.63
2023-02-02T23:21:47.615Z,99031.47
2023-02-02T23:24:50.968Z,99048.03
2023-02-02T23:27:54.520Z,99045.09
2023-02-02T23:30:59.257Z,99045.09
2023-02-02T23:34:04.463Z,99060.50
2023-02-02T23:37:07.658Z,99044.16
2023-02-02T23:40:13.506Z,99060.16
2023-02-02T23:43:16.896Z,99062.63
2023-02-02T23:46:20.642Z,99075.69
2023-02-02T23:49:26.127Z,99074.34
2023-02-02T23:52:29.769Z,99072.66
2023-02-02T23:55:33.824Z,99076.47
2023-02-02T23:58:37.588Z,99073.16
